createdAt,value
2022-08-10T00:01:07.924Z,76.92
2022-08-10T00:03:34.613Z,77.28
2022-08-10T00:06:01.278Z,76.80
2022-08-10T00:08:27.896Z,76.63
2022-08-10T00:10:55.416Z,76.59
2022-08-10T00:13:22.582Z,77.19
2022-08-10T00:15:54.224Z,76.76
2022-08-10T00:18:35.277Z,78.32
2022-08-10T00:21:06.889Z,77.37
2022-08-10T00:23:34.143Z,77.73
2022-08-10T00:26:00.815Z,77.29
2022-08-10T00:28:27.482Z,78.37
2022-08-10T00:30:54.165Z,77.79
2022-08-10T00:33:20.851Z,77.32
2022-08-10T00:35:47.575Z,77.89
2022-08-10T00:38:14.226Z,78.50
2022-08-10T00:40:40.811Z,79.03
2022-08-10T00:43:07.479Z,78.84
2022-08-10T00:45:34.862Z,77.71
2022-08-10T00:48:01.472Z,78.27
2022-08-10T00:50:28.081Z,78.13
2022-08-10T00:52:54.818Z,78.29
2022-08-10T00:55:21.519Z,78.69
2022-08-10T00:57:55.417Z,78.65
2022-08-10T01:00:23.518Z,78.81
2022-08-10T01:02:50.365Z,78.72
2022-08-10T01:05:17.316Z,79.33
2022-08-10T01:08:02.844Z,79.86
2022-08-10T01:10:43.691Z,78.74
2022-08-10T01:13:10.125Z,79.26
2022-08-10T01:15:58.394Z,79.09
2022-08-10T01:18:33.764Z,79.42
2022-08-10T01:21:21.828Z,79.54
2022-08-10T01:24:06.996Z,79.88
2022-08-10T01:27:07.318Z,80.18
2022-08-10T01:30:09.325Z,80.71
2022-08-10T01:33:06.246Z,79.59
2022-08-10T01:36:05.485Z,81.01
2022-08-10T01:38:33.860Z,79.97
2022-08-10T01:41:06.600Z,79.56
2022-08-10T01:43:34.879Z,80.00
2022-08-10T01:46:01.766Z,81.09
2022-08-10T01:48:40.310Z,80.79
2022-08-10T01:51:18.787Z,80.84
2022-08-10T01:53:56.609Z,80.76
2022-08-10T01:56:24.608Z,80.71
2022-08-10T01:58:59.084Z,80.25
2022-08-10T02:01:27.758Z,80.75
2022-08-10T02:04:04.457Z,80.39
2022-08-10T02:06:32.394Z,80.56
2022-08-10T02:09:06.545Z,80.52
2022-08-10T02:12:06.827Z,81.23
2022-08-10T02:14:21.738Z,81.45
2022-08-10T02:16:50.666Z,80.72
2022-08-10T02:19:18.672Z,81.11
2022-08-10T02:22:09.503Z,80.79
2022-08-10T02:24:33.235Z,81.08
2022-08-10T02:27:00.022Z,81.61
2022-08-10T02:29:26.683Z,82.14
2022-08-10T02:31:53.313Z,81.97
2022-08-10T02:34:20.888Z,81.39
2022-08-10T02:36:49.551Z,81.82
2022-08-10T02:39:16.671Z,82.58
2022-08-10T02:45:12.179Z,82.26
2022-08-10T02:45:20.129Z,81.55
2022-08-10T02:47:57.535Z,83.01
2022-08-10T02:50:27.801Z,81.41
2022-08-10T02:53:55.168Z,81.28
2022-08-10T02:56:51.679Z,82.21
2022-08-10T02:59:40.436Z,81.34
2022-08-10T03:02:09.626Z,81.91
2022-08-10T03:04:55.185Z,82.17
2022-08-10T03:07:43.495Z,81.66
2022-08-10T03:10:22.251Z,82.49
2022-08-10T03:12:58.273Z,82.68
2022-08-10T03:15:25.014Z,82.94
2022-08-10T03:17:57.930Z,82.50
2022-08-10T03:20:38.144Z,82.15
2022-08-10T03:23:16.253Z,82.11
2022-08-10T03:25:53.798Z,81.77
2022-08-10T03:28:22.638Z,82.57
2022-08-10T03:30:49.299Z,82.72
2022-08-10T03:33:15.974Z,82.94
2022-08-10T03:35:42.533Z,82.50
2022-08-10T03:38:29.240Z,82.83
2022-08-10T03:40:57.169Z,82.25
2022-08-10T03:43:23.806Z,82.70
2022-08-10T03:45:55.515Z,82.98
2022-08-10T03:48:23.593Z,82.84
2022-08-10T03:50:54.967Z,83.08
2022-08-10T03:53:25.298Z,82.76
2022-08-10T03:56:28.982Z,83.90
2022-08-10T03:58:54.745Z,83.64
2022-08-10T04:01:21.437Z,83.72
2022-08-10T04:04:11.773Z,83.70
2022-08-10T04:06:41.275Z,83.14
2022-08-10T04:09:07.886Z,83.51
2022-08-10T04:11:34.498Z,82.94
2022-08-10T04:14:01.114Z,83.32
2022-08-10T04:16:27.707Z,84.15
2022-08-10T04:18:54.495Z,83.24
2022-08-10T04:21:23.625Z,83.92
2022-08-10T04:23:53.175Z,84.08
2022-08-10T04:26:19.956Z,83.41
2022-08-10T04:28:46.551Z,83.51
2022-08-10T04:31:13.191Z,83.05
2022-08-10T04:33:41.463Z,83.23
2022-08-10T04:36:08.426Z,83.37
2022-08-10T04:38:35.381Z,84.09
2022-08-10T04:41:01.960Z,83.83
2022-08-10T04:43:28.587Z,84.69
2022-08-10T04:45:55.691Z,84.10
2022-08-10T04:48:42.780Z,83.76
2022-08-10T04:51:18.703Z,84.78
2022-08-10T04:54:04.944Z,84.40
2022-08-10T04:56:37.217Z,84.36
2022-08-10T04:59:04.974Z,84.42
2022-08-10T05:02:12.334Z,84.08
2022-08-10T05:04:36.445Z,84.31
2022-08-10T05:07:09.450Z,84.45
2022-08-10T05:10:01.050Z,83.60
2022-08-10T05:12:23.825Z,84.21
2022-08-10T05:14:50.403Z,84.27
2022-08-10T05:17:17.089Z,84.57
2022-08-10T05:20:04.201Z,84.15
2022-08-10T05:22:30.265Z,83.97
2022-08-10T05:24:56.956Z,84.36
2022-08-10T05:27:23.603Z,84.29
2022-08-10T05:30:01.239Z,84.16
2022-08-10T05:32:29.714Z,85.17
2022-08-10T05:34:56.265Z,84.70
2022-08-10T05:38:13.196Z,84.33
2022-08-10T05:40:09.877Z,85.46
2022-08-10T05:42:36.641Z,85.04
2022-08-10T05:45:04.192Z,85.26
2022-08-10T05:48:55.411Z,85.08
2022-08-10T05:50:18.829Z,84.68
2022-08-10T05:52:45.519Z,84.75
2022-08-10T05:55:12.163Z,84.97
2022-08-10T05:57:38.743Z,84.36
2022-08-10T06:00:12.704Z,84.38
2022-08-10T06:02:59.286Z,84.64
2022-08-10T06:05:29.796Z,85.26
2022-08-10T06:08:08.997Z,85.14
2022-08-10T06:10:35.900Z,84.57
2022-08-10T06:13:29.745Z,83.58
2022-08-10T06:15:59.108Z,82.35
2022-08-10T06:18:25.737Z,82.46
2022-08-10T06:20:52.384Z,82.33
2022-08-10T06:23:18.960Z,81.60
2022-08-10T06:26:11.842Z,81.99
2022-08-10T06:28:33.548Z,82.03
2022-08-10T06:31:00.475Z,81.96
2022-08-10T06:33:27.009Z,82.00
2022-08-10T06:35:55.080Z,80.42
2022-08-10T06:38:23.757Z,81.40
2022-08-10T06:40:50.369Z,81.37
2022-08-10T06:43:18.692Z,82.23
2022-08-10T06:46:07.164Z,81.85
2022-08-10T06:48:41.616Z,79.95
2022-08-10T06:51:11.850Z,79.59
2022-08-10T06:53:53.061Z,80.04
2022-08-10T06:56:37.869Z,80.36
2022-08-10T06:59:08.483Z,80.31
2022-08-10T07:01:51.256Z,78.69
2022-08-10T07:04:32.416Z,79.43
2022-08-10T07:07:04.443Z,77.56
2022-08-10T07:09:32.358Z,77.75
2022-08-10T07:12:08.304Z,77.55
2022-08-10T07:14:44.332Z,77.11
2022-08-10T07:17:15.718Z,76.18
2022-08-10T07:19:49.977Z,75.56
2022-08-10T07:23:26.875Z,76.30
2022-08-10T07:25:07.834Z,73.65
2022-08-10T07:27:39.275Z,71.64
2022-08-10T07:30:21.364Z,68.10
2022-08-10T07:32:48.822Z,64.32
2022-08-10T07:35:15.929Z,64.72
2022-08-10T07:37:42.658Z,60.89
2022-08-10T07:40:09.437Z,58.33
2022-08-10T07:42:37.125Z,58.26
2022-08-10T07:45:06.006Z,56.90
2022-08-10T07:47:46.114Z,54.59
2022-08-10T07:50:21.072Z,53.63
2022-08-10T07:52:47.861Z,50.96
2022-08-10T07:55:16.627Z,50.45
2022-08-10T07:57:43.541Z,48.30
2022-08-10T08:00:10.753Z,48.09
2022-08-10T08:02:39.992Z,46.25
2022-08-10T08:05:08.316Z,43.22
2022-08-10T08:07:35.634Z,42.57
2022-08-10T08:10:02.347Z,43.70
2022-08-10T08:12:31.481Z,42.24
2022-08-10T08:15:01.530Z,42.07
2022-08-10T08:17:48.749Z,39.98
2022-08-10T08:20:26.364Z,38.81
2022-08-10T08:24:05.068Z,38.40
2022-08-10T08:25:41.925Z,37.86
2022-08-10T08:28:09.159Z,37.89
2022-08-10T08:30:35.752Z,34.86
2022-08-10T08:33:02.351Z,37.96
2022-08-10T08:35:28.990Z,36.24
2022-08-10T08:38:32.593Z,35.11
2022-08-10T08:40:44.280Z,34.53
2022-08-10T08:43:32.646Z,34.46
2022-08-10T08:46:02.420Z,34.38
2022-08-10T08:48:52.013Z,33.50
2022-08-10T08:52:17.180Z,34.83
2022-08-10T08:54:34.150Z,33.96
2022-08-10T08:57:08.019Z,32.25
2022-08-10T08:59:58.898Z,30.88
2022-08-10T09:03:02.823Z,31.00
2022-08-10T09:05:59.717Z,30.82
2022-08-10T09:08:55.963Z,30.31
2022-08-10T09:11:37.012Z,31.23
2022-08-10T09:14:17.349Z,30.73
2022-08-10T09:17:00.572Z,29.69
2022-08-10T09:19:36.492Z,28.71
2022-08-10T09:22:17.440Z,30.03
2022-08-10T09:25:08.545Z,29.27
2022-08-10T09:27:49.650Z,29.99
2022-08-10T09:30:18.837Z,29.52
2022-08-10T09:36:23.356Z,31.26
2022-08-10T09:36:26.174Z,29.62
2022-08-10T09:40:58.321Z,30.07
2022-08-10T09:42:33.385Z,27.97
2022-08-10T09:45:03.504Z,28.07
2022-08-10T09:47:58.530Z,28.38
2022-08-10T09:51:05.425Z,28.45
2022-08-10T09:53:35.557Z,28.85
2022-08-10T09:56:21.417Z,27.85
2022-08-10T09:59:29.323Z,26.78
2022-08-10T10:02:14.739Z,25.27
2022-08-10T10:04:43.192Z,27.56
2022-08-10T10:07:10.677Z,25.21
2022-08-10T10:10:08.284Z,27.31
2022-08-10T10:13:07.304Z,24.17
2022-08-10T10:15:59.542Z,26.31
2022-08-10T10:18:29.155Z,24.60
2022-08-10T10:21:09.549Z,25.55
2022-08-10T10:24:21.619Z,24.49
2022-08-10T10:26:58.026Z,24.76
2022-08-10T10:29:57.483Z,24.97
2022-08-10T10:32:44.170Z,24.61
2022-08-10T10:35:30.215Z,25.81
2022-08-10T10:38:02.134Z,24.00
2022-08-10T10:40:53.153Z,25.39
2022-08-10T10:43:25.754Z,26.71
2022-08-10T10:46:23.488Z,28.22
2022-08-10T10:49:01.063Z,32.41
2022-08-10T10:51:34.211Z,26.82
2022-08-10T10:54:03.303Z,27.65
2022-08-10T10:56:39.457Z,27.56
2022-08-10T10:59:55.016Z,28.29
2022-08-10T11:03:01.331Z,30.48
2022-08-10T11:05:38.147Z,30.50
2022-08-10T11:08:09.205Z,31.16
2022-08-10T11:10:53.415Z,32.70
2022-08-10T11:14:25.928Z,30.94
2022-08-10T11:16:39.526Z,30.76
2022-08-10T11:19:21.581Z,31.14
2022-08-10T11:22:06.967Z,32.60
2022-08-10T11:25:10.545Z,33.35
2022-08-10T11:27:52.349Z,33.78
2022-08-10T11:30:21.230Z,34.79
2022-08-10T11:33:03.962Z,32.96
2022-08-10T11:35:50.632Z,32.96
2022-08-10T11:38:42.886Z,33.93
2022-08-10T11:42:10.242Z,32.96
2022-08-10T11:44:32.680Z,31.46
2022-08-10T11:47:10.663Z,33.07
2022-08-10T11:50:04.804Z,33.85
2022-08-10T11:52:59.316Z,32.59
2022-08-10T11:55:30.613Z,33.18
2022-08-10T11:58:01.744Z,33.22
2022-08-10T12:00:32.572Z,33.88
2022-08-10T12:03:02.097Z,32.28
2022-08-10T12:05:51.983Z,30.28
2022-08-10T12:10:05.959Z,31.65
2022-08-10T12:11:25.167Z,32.07
2022-08-10T12:14:20.387Z,32.89
2022-08-10T12:16:48.828Z,32.86
2022-08-10T12:19:23.755Z,31.60
2022-08-10T12:21:59.998Z,31.55
2022-08-10T12:24:39.976Z,32.39
2022-08-10T12:27:34.426Z,30.50
2022-08-10T12:30:06.219Z,29.27
2022-08-10T12:32:38.886Z,29.14
2022-08-10T12:35:26.387Z,30.89
2022-08-10T12:38:23.252Z,32.07
2022-08-10T12:41:00.161Z,30.13
2022-08-10T12:44:07.186Z,31.42
2022-08-10T12:46:40.307Z,32.85
2022-08-10T12:49:30.389Z,32.36
2022-08-10T12:52:03.005Z,33.58
2022-08-10T12:54:32.380Z,32.47
2022-08-10T12:57:02.222Z,32.82
2022-08-10T12:59:28.864Z,31.45
2022-08-10T13:02:09.919Z,33.71
2022-08-10T13:04:38.377Z,32.34
2022-08-10T13:07:05.527Z,32.24
2022-08-10T13:09:32.464Z,32.57
2022-08-10T13:12:39.354Z,33.99
2022-08-10T13:14:57.826Z,33.32
2022-08-10T13:17:38.751Z,31.68
2022-08-10T13:20:28.193Z,31.81
2022-08-10T13:22:56.893Z,31.95
2022-08-10T13:25:31.788Z,27.74
2022-08-10T13:28:37.897Z,29.58
2022-08-10T13:30:50.725Z,30.30
2022-08-10T13:34:40.599Z,31.29
2022-08-10T13:36:05.952Z,29.09
2022-08-10T13:38:32.682Z,29.96
2022-08-10T13:40:59.425Z,28.71
2022-08-10T13:43:26.088Z,28.33
2022-08-10T13:45:52.948Z,28.85
2022-08-10T13:48:22.940Z,28.10
2022-08-10T13:50:50.784Z,29.28
2022-08-10T13:53:17.586Z,30.02
2022-08-10T13:55:55.380Z,30.06
2022-08-10T13:58:37.107Z,30.98
2022-08-10T14:01:17.491Z,32.71
2022-08-10T14:03:44.576Z,32.17
2022-08-10T14:06:12.854Z,32.95
2022-08-10T14:08:39.658Z,31.90
2022-08-10T14:11:11.797Z,31.22
2022-08-10T14:13:58.863Z,32.37
2022-08-10T14:16:25.843Z,32.53
2022-08-10T14:18:54.367Z,33.61
2022-08-10T14:21:21.202Z,31.65
2022-08-10T14:23:52.876Z,31.54
2022-08-10T14:26:28.442Z,32.26
2022-08-10T14:29:19.954Z,33.00
2022-08-10T14:32:01.721Z,32.24
2022-08-10T14:34:59.544Z,32.52
2022-08-10T14:37:23.000Z,30.25
2022-08-10T14:40:04.845Z,30.13
2022-08-10T14:42:35.567Z,31.11
2022-08-10T14:45:33.041Z,30.89
2022-08-10T14:48:06.050Z,28.74
2022-08-10T14:50:34.266Z,29.37
2022-08-10T14:53:14.904Z,30.12
2022-08-10T14:55:58.930Z,30.36
2022-08-10T14:58:59.357Z,31.34
2022-08-10T15:02:01.424Z,30.98
2022-08-10T15:04:24.882Z,31.13
2022-08-10T15:06:54.184Z,28.58
2022-08-10T15:09:24.162Z,30.19
2022-08-10T15:12:12.933Z,30.08
2022-08-10T15:14:45.037Z,29.59
2022-08-10T15:17:15.467Z,30.15
2022-08-10T15:20:02.957Z,30.65
2022-08-10T15:22:37.502Z,30.83
2022-08-10T15:25:05.305Z,31.04
2022-08-10T15:27:55.029Z,31.14
2022-08-10T15:30:29.599Z,32.97
2022-08-10T15:32:58.261Z,32.11
2022-08-10T15:35:27.995Z,32.28
2022-08-10T15:38:00.954Z,30.86
2022-08-10T15:40:32.308Z,30.45
2022-08-10T15:43:05.544Z,31.31
2022-08-10T15:45:54.546Z,32.13
2022-08-10T15:48:21.508Z,31.34
2022-08-10T15:50:49.674Z,30.54
2022-08-10T15:53:48.984Z,31.38
2022-08-10T15:56:31.407Z,31.79
2022-08-10T15:59:08.019Z,32.51
2022-08-10T16:02:14.811Z,31.06
2022-08-10T16:04:46.604Z,31.36
2022-08-10T16:07:18.580Z,31.74
2022-08-10T16:10:26.381Z,32.10
2022-08-10T16:12:42.176Z,31.34
2022-08-10T16:15:15.259Z,32.15
2022-08-10T16:17:57.632Z,32.02
2022-08-10T16:20:55.085Z,32.39
2022-08-10T16:23:26.022Z,32.46
2022-08-10T16:26:03.003Z,31.31
2022-08-10T16:28:35.084Z,32.05
2022-08-10T16:31:03.976Z,32.13
2022-08-10T16:33:54.514Z,32.73
2022-08-10T16:36:18.987Z,32.77
2022-08-10T16:38:48.135Z,33.08
2022-08-10T16:42:02.160Z,33.35
2022-08-10T16:44:01.474Z,33.93
2022-08-10T16:46:28.199Z,34.34
2022-08-10T16:48:54.810Z,34.83
2022-08-10T16:51:21.619Z,34.68
2022-08-10T16:53:48.771Z,34.85
2022-08-10T16:56:15.496Z,33.51
2022-08-10T16:58:44.438Z,33.01
2022-08-10T17:01:10.987Z,33.58
2022-08-10T17:04:06.253Z,33.29
2022-08-10T17:06:35.641Z,34.60
2022-08-10T17:09:04.001Z,35.20
2022-08-10T17:11:32.666Z,33.58
2022-08-10T17:14:07.609Z,33.77
2022-08-10T17:16:43.554Z,33.67
2022-08-10T17:19:14.617Z,33.78
2022-08-10T17:21:50.979Z,34.97
2022-08-10T17:24:20.358Z,34.31
2022-08-10T17:26:47.102Z,35.34
2022-08-10T17:29:59.160Z,36.93
2022-08-10T17:32:19.944Z,39.07
2022-08-10T17:34:48.374Z,40.50
2022-08-10T17:37:19.047Z,41.24
2022-08-10T17:39:58.156Z,40.52
2022-08-10T17:42:24.880Z,41.37
2022-08-10T17:44:53.010Z,42.93
2022-08-10T17:47:19.954Z,42.84
2022-08-10T17:49:46.631Z,43.95
2022-08-10T17:52:19.673Z,44.71
2022-08-10T17:54:46.370Z,44.91
2022-08-10T17:57:20.016Z,44.24
2022-08-10T17:59:47.453Z,45.98
2022-08-10T18:02:19.300Z,46.93
2022-08-10T18:04:59.071Z,46.37
2022-08-10T18:07:37.055Z,48.04
2022-08-10T18:10:04.557Z,48.87
2022-08-10T18:12:38.776Z,50.56
2022-08-10T18:15:13.758Z,51.76
2022-08-10T18:17:43.462Z,51.96
2022-08-10T18:20:11.049Z,52.17
2022-08-10T18:22:43.392Z,51.82
2022-08-10T18:25:20.937Z,53.04
2022-08-10T18:28:03.679Z,53.40
2022-08-10T18:30:33.084Z,53.08
2022-08-10T18:33:03.513Z,52.88
2022-08-10T18:35:35.074Z,52.57
2022-08-10T18:38:01.973Z,52.52
2022-08-10T18:40:36.613Z,53.50
2022-08-10T18:43:06.395Z,53.13
2022-08-10T18:45:36.895Z,54.48
2022-08-10T18:48:08.833Z,55.13
2022-08-10T18:50:37.153Z,56.12
2022-08-10T18:53:09.254Z,57.02
2022-08-10T18:55:46.151Z,54.31
2022-08-10T18:58:42.011Z,56.02
2022-08-10T19:01:33.924Z,56.18
2022-08-10T19:04:34.981Z,56.34
2022-08-10T19:07:04.700Z,56.13
2022-08-10T19:09:47.539Z,57.46
2022-08-10T19:12:39.419Z,59.64
2022-08-10T19:15:18.902Z,57.94
2022-08-10T19:18:10.995Z,58.38
2022-08-10T19:21:14.645Z,58.89
2022-08-10T19:24:36.461Z,59.50
2022-08-10T19:27:12.208Z,59.05
2022-08-10T19:30:09.332Z,58.94
2022-08-10T19:32:57.135Z,59.64
2022-08-10T19:36:03.616Z,59.47
2022-08-10T19:38:49.712Z,59.20
2022-08-10T19:41:31.902Z,60.72
2022-08-10T19:44:03.339Z,60.79
2022-08-10T19:46:40.982Z,60.70
2022-08-10T19:49:17.757Z,61.79
2022-08-10T19:52:05.066Z,60.91
2022-08-10T19:55:04.431Z,61.81
2022-08-10T19:57:33.944Z,62.56
2022-08-10T20:00:19.269Z,63.35
2022-08-10T20:02:56.602Z,62.90
2022-08-10T20:06:18.054Z,62.89
2022-08-10T20:08:42.792Z,64.27
2022-08-10T20:11:44.523Z,64.19
2022-08-10T20:14:21.522Z,64.31
2022-08-10T20:16:49.227Z,65.58
2022-08-10T20:19:53.668Z,65.38
2022-08-10T20:22:29.237Z,64.91
2022-08-10T20:25:04.325Z,65.01
2022-08-10T20:27:58.972Z,66.38
2022-08-10T20:30:35.795Z,67.01
2022-08-10T20:33:09.238Z,65.83
2022-08-10T20:36:01.991Z,66.15
2022-08-10T20:38:56.160Z,66.30
2022-08-10T20:41:31.795Z,66.69
2022-08-10T20:44:50.843Z,66.86
2022-08-10T20:47:53.981Z,68.26
2022-08-10T20:50:50.123Z,68.24
2022-08-10T20:53:18.623Z,68.51
2022-08-10T20:55:54.339Z,67.41
2022-08-10T20:58:30.097Z,68.49
2022-08-10T21:01:14.901Z,68.23
2022-08-10T21:04:02.458Z,68.21
2022-08-10T21:06:45.384Z,67.54
2022-08-10T21:09:14.985Z,68.69
2022-08-10T21:12:06.508Z,68.94
2022-08-10T21:14:51.188Z,69.19
2022-08-10T21:17:47.793Z,69.56
2022-08-10T21:20:36.181Z,69.38
2022-08-10T21:23:05.239Z,69.56
2022-08-10T21:25:49.148Z,69.64
2022-08-10T21:32:03.520Z,69.45
2022-08-10T21:35:05.286Z,69.78
2022-08-10T21:37:56.628Z,69.32
2022-08-10T21:40:42.647Z,69.53
2022-08-10T21:43:44.455Z,70.66
2022-08-10T21:46:21.330Z,71.59
2022-08-10T21:48:57.305Z,71.36
2022-08-10T21:52:00.372Z,70.91
2022-08-10T21:54:33.631Z,71.91
2022-08-10T21:57:05.770Z,72.89
2022-08-10T21:59:44.054Z,73.09
2022-08-10T22:02:14.846Z,72.50
2022-08-10T22:04:45.610Z,72.18
2022-08-10T22:07:12.463Z,72.69
2022-08-10T22:09:44.167Z,73.01
2022-08-10T22:12:31.128Z,72.31
2022-08-10T22:15:01.611Z,71.94
2022-08-10T22:18:03.165Z,72.35
2022-08-10T22:20:34.208Z,72.72
2022-08-10T22:23:22.454Z,73.81
2022-08-10T22:26:01.229Z,73.40
2022-08-10T22:28:27.912Z,73.84
2022-08-10T22:31:24.738Z,68.74
2022-08-10T22:31:31.700Z,73.62
2022-08-10T22:34:11.178Z,73.15
2022-08-10T22:37:00.578Z,73.88
2022-08-10T22:40:10.812Z,75.07
2022-08-10T22:42:59.047Z,75.18
2022-08-10T22:45:21.302Z,74.82
2022-08-10T22:47:47.987Z,74.92
2022-08-10T22:50:21.448Z,75.49
2022-08-10T22:53:02.050Z,75.06
2022-08-10T22:55:34.121Z,75.52
2022-08-10T22:58:00.811Z,75.78
2022-08-10T23:00:30.639Z,75.60
2022-08-10T23:03:16.369Z,75.28
2022-08-10T23:05:57.358Z,74.92
2022-08-10T23:08:45.376Z,75.16
2022-08-10T23:11:25.037Z,76.87
2022-08-10T23:13:56.448Z,76.41
2022-08-10T23:16:25.812Z,76.10
2022-08-10T23:18:54.518Z,76.09
2022-08-10T23:21:21.704Z,75.76
2022-08-10T23:23:48.561Z,76.85
2022-08-10T23:26:16.794Z,76.48
2022-08-10T23:28:58.544Z,76.70
2022-08-10T23:32:01.282Z,76.62
2022-08-10T23:34:13.276Z,76.77
2022-08-10T23:36:39.971Z,77.82
2022-08-10T23:39:25.592Z,77.52
2022-08-10T23:41:56.238Z,76.60
2022-08-10T23:44:22.909Z,77.01
2022-08-10T23:46:49.627Z,77.51
2022-08-10T23:49:16.224Z,77.46
2022-08-10T23:51:55.947Z,76.55
2022-08-10T23:54:23.620Z,77.68
2022-08-10T23:57:00.965Z,77.30
2022-08-10T23:59:28.303Z,77.14
